sensor_id;sensor_type;location;lat;lon;timestamp;pressure;altitude;pressure_sealevel;temperature;humidity
45621;BME280;31345;51.522;10.702;2023-03-22T00:00:09;98747.56;;;6.78;100.00
45621;BME280;31345;51.522;10.702;2023-03-22T00:02:40;98757.34;;;7.05;100.00
45621;BME280;31345;51.522;10.702;2023-03-22T00:05:14;98747.22;;;7.01;100.00
45621;BME280;31345;51.522;10.702;2023-03-22T00:07:42;98745.53;;;7.00;100.00
45621;BME280;31345;51.522;10.702;2023-03-22T00:10:09;98739.84;;;6.93;100.00
45621;BME280;31345;51.522;10.702;2023-03-22T00:12:37;98741.56;;;6.78;100.00
45621;BME280;31345;51.522;10.702;2023-03-22T00:15:05;98735.25;;;6.66;100.00
45621;BME280;31345;51.522;10.702;2023-03-22T00:17:39;98734.94;;;6.72;100.00
45621;BME280;31345;51.522;10.702;2023-03-22T00:20:16;98728.47;;;6.79;100.00
45621;BME280;31345;51.522;10.702;2023-03-22T00:22:45;98737.59;;;6.87;100.00
45621;BME280;31345;51.522;10.702;2023-03-22T00:25:13;98741.59;;;6.92;100.00
45621;BME280;31345;51.522;10.702;2023-03-22T00:27:45;98735.34;;;6.97;100.00
45621;BME280;31345;51.522;10.702;2023-03-22T00:30:18;98728.00;;;6.73;100.00
45621;BME280;31345;51.522;10.702;2023-03-22T00:32:51;98737.44;;;6.74;100.00
45621;BME280;31345;51.522;10.702;2023-03-22T00:35:24;98732.59;;;6.68;100.00
45621;BME280;31345;51.522;10.702;2023-03-22T00:37:57;98726.28;;;6.88;100.00
45621;BME280;31345;51.522;10.702;2023-03-22T00:40:36;98720.25;;;6.87;100.00
45621;BME280;31345;51.522;10.702;2023-03-22T00:43:08;98726.66;;;6.65;100.00
45621;BME280;31345;51.522;10.702;2023-03-22T00:45:41;98722.78;;;6.73;100.00
45621;BME280;31345;51.522;10.702;2023-03-22T00:48:15;98725.03;;;6.79;100.00
45621;BME280;31345;51.522;10.702;2023-03-22T00:50:44;98724.19;;;6.78;100.00
45621;BME280;31345;51.522;10.702;2023-03-22T00:53:12;98722.91;;;6.86;100.00
45621;BME280;31345;51.522;10.702;2023-03-22T00:55:44;98723.19;;;6.65;100.00
45621;BME280;31345;51.522;10.702;2023-03-22T00:58:17;98727.00;;;6.43;100.00
45621;BME280;31345;51.522;10.702;2023-03-22T01:00:45;98728.66;;;6.60;100.00
45621;BME280;31345;51.522;10.702;2023-03-22T01:03:17;98719.69;;;6.50;100.00
45621;BME280;31345;51.522;10.702;2023-03-22T01:05:53;98714.34;;;6.53;100.00
45621;BME280;31345;51.522;10.702;2023-03-22T01:08:22;98716.84;;;6.38;100.00
45621;BME280;31345;51.522;10.702;2023-03-22T01:10:54;98713.31;;;6.39;100.00
45621;BME280;31345;51.522;10.702;2023-03-22T01:13:27;98704.63;;;6.57;100.00
45621;BME280;31345;51.522;10.702;2023-03-22T01:15:55;98694.75;;;6.31;100.00
45621;BME280;31345;51.522;10.702;2023-03-22T01:18:23;98698.31;;;6.12;100.00
45621;BME280;31345;51.522;10.702;2023-03-22T01:20:50;98693.59;;;6.21;100.00
45621;BME280;31345;51.522;10.702;2023-03-22T01:23:24;98693.88;;;5.98;100.00
45621;BME280;31345;51.522;10.702;2023-03-22T01:25:52;98701.69;;;6.14;100.00
45621;BME280;31345;51.522;10.702;2023-03-22T01:28:24;98690.38;;;6.15;100.00
45621;BME280;31345;51.522;10.702;2023-03-22T01:31:00;98691.00;;;6.21;100.00
45621;BME280;31345;51.522;10.702;2023-03-22T01:33:29;98678.91;;;6.20;100.00
45621;BME280;31345;51.522;10.702;2023-03-22T01:35:57;98680.84;;;6.16;100.00
45621;BME280;31345;51.522;10.702;2023-03-22T01:38:28;98683.19;;;6.21;100.00
45621;BME280;31345;51.522;10.702;2023-03-22T01:41:03;98684.84;;;6.06;100.00
45621;BME280;31345;51.522;10.702;2023-03-22T01:43:40;98683.25;;;6.35;100.00
45621;BME280;31345;51.522;10.702;2023-03-22T01:46:12;98676.91;;;5.93;100.00
45621;BME280;31345;51.522;10.702;2023-03-22T01:48:41;98678.06;;;5.87;100.00
45621;BME280;31345;51.522;10.702;2023-03-22T01:51:18;98677.88;;;5.90;100.00
45621;BME280;31345;51.522;10.702;2023-03-22T01:54:27;98684.41;;;5.81;100.00
45621;BME280;31345;51.522;10.702;2023-03-22T01:57:02;98677.13;;;6.04;100.00
45621;BME280;31345;51.522;10.702;2023-03-22T01:59:39;98670.97;;;6.07;100.00
45621;BME280;31345;51.522;10.702;2023-03-22T02:02:25;98673.03;;;6.00;100.00
45621;BME280;31345;51.522;10.702;2023-03-22T02:05:10;98662.84;;;6.13;100.00
45621;BME280;31345;51.522;10.702;2023-03-22T02:07:40;98665.09;;;6.19;100.00
45621;BME280;31345;51.522;10.702;2023-03-22T02:10:11;98666.03;;;6.02;100.00
45621;BME280;31345;51.522;10.702;2023-03-22T02:12:58;98666.13;;;6.17;100.00
45621;BME280;31345;51.522;10.702;2023-03-22T02:16:01;98661.81;;;6.15;100.00
45621;BME280;31345;51.522;10.702;2023-03-22T02:18:55;98650.53;;;6.00;100.00
45621;BME280;31345;51.522;10.702;2023-03-22T02:21:51;98654.63;;;6.05;100.00
45621;BME280;31345;51.522;10.702;2023-03-22T02:25:00;98666.03;;;6.02;100.00
45621;BME280;31345;51.522;10.702;2023-03-22T02:28:17;98669.44;;;6.02;100.00
45621;BME280;31345;51.522;10.702;2023-03-22T02:31:20;98663.25;;;6.21;100.00
45621;BME280;31345;51.522;10.702;2023-03-22T02:37:25;98654.63;;;6.05;100.00
45621;BME280;31345;51.522;10.702;2023-03-22T02:40:04;98663.59;;;5.99;100.00
45621;BME280;31345;51.522;10.702;2023-03-22T02:42:47;98655.03;;;6.13;100.00
45621;BME280;31345;51.522;10.702;2023-03-22T02:45:29;98647.03;;;6.18;100.00
45621;BME280;31345;51.522;10.702;2023-03-22T02:48:07;98646.84;;;6.05;100.00
45621;BME280;31345;51.522;10.702;2023-03-22T02:50:39;98645.56;;;5.96;100.00
45621;BME280;31345;51.522;10.702;2023-03-22T02:53:15;98646.84;;;6.05;100.00
45621;BME280;31345;51.522;10.702;2023-03-22T02:55:54;98653.56;;;5.93;100.00
45621;BME280;31345;51.522;10.702;2023-03-22T02:58:33;98649.53;;;6.03;100.00
45621;BME280;31345;51.522;10.702;2023-03-22T03:01:05;98647.63;;;6.07;100.00
45621;BME280;31345;51.522;10.702;2023-03-22T03:03:38;98649.59;;;6.01;100.00
45621;BME280;31345;51.522;10.702;2023-03-22T03:06:09;98647.34;;;6.11;100.00
45621;BME280;31345;51.522;10.702;2023-03-22T03:08:47;98641.38;;;6.25;100.00
45621;BME280;31345;51.522;10.702;2023-03-22T03:11:23;98635.69;;;6.02;100.00
45621;BME280;31345;51.522;10.702;2023-03-22T03:13:55;98638.31;;;6.19;100.00
45621;BME280;31345;51.522;10.702;2023-03-22T03:16:25;98621.47;;;6.10;100.00
45621;BME280;31345;51.522;10.702;2023-03-22T03:18:58;98623.97;;;6.27;100.00
45621;BME280;31345;51.522;10.702;2023-03-22T03:21:32;98626.91;;;6.21;100.00
45621;BME280;31345;51.522;10.702;2023-03-22T03:24:17;98622.22;;;6.12;100.00
45621;BME280;31345;51.522;10.702;2023-03-22T03:26:57;98628.25;;;6.12;100.00
45621;BME280;31345;51.522;10.702;2023-03-22T03:29:32;98625.91;;;6.24;100.00
45621;BME280;31345;51.522;10.702;2023-03-22T03:32:10;98622.97;;;6.30;100.00
45621;BME280;31345;51.522;10.702;2023-03-22T03:34:45;98622.56;;;6.22;100.00
45621;BME280;31345;51.522;10.702;2023-03-22T03:37:17;98627.72;;;6.38;100.00
45621;BME280;31345;51.522;10.702;2023-03-22T03:39:54;98625.00;;;6.25;100.00
45621;BME280;31345;51.522;10.702;2023-03-22T03:42:31;98621.97;;;6.33;100.00
45621;BME280;31345;51.522;10.702;2023-03-22T03:44:59;98631.00;;;6.25;100.00
45621;BME280;31345;51.522;10.702;2023-03-22T03:47:28;98626.09;;;6.21;100.00
45621;BME280;31345;51.522;10.702;2023-03-22T03:50:02;98628.78;;;6.19;100.00
45621;BME280;31345;51.522;10.702;2023-03-22T03:52:36;98625.81;;;6.25;100.00
45621;BME280;31345;51.522;10.702;2023-03-22T03:55:09;98626.50;;;6.13;100.00
45621;BME280;31345;51.522;10.702;2023-03-22T03:57:44;98634.44;;;6.26;100.00
45621;BME280;31345;51.522;10.702;2023-03-22T04:00:17;98632.25;;;6.18;100.00
45621;BME280;31345;51.522;10.702;2023-03-22T04:03:08;98638.22;;;6.20;100.00
45621;BME280;31345;51.522;10.702;2023-03-22T04:06:06;98632.38;;;6.17;100.00
45621;BME280;31345;51.522;10.702;2023-03-22T04:08:37;98626.84;;;6.07;100.00
45621;BME280;31345;51.522;10.702;2023-03-22T04:11:11;98618.47;;;6.18;100.00
45621;BME280;31345;51.522;10.702;2023-03-22T04:13:41;98617.38;;;6.06;100.00
45621;BME280;31345;51.522;10.702;2023-03-22T04:16:18;98612.88;;;6.09;100.00
45621;BME280;31345;51.522;10.702;2023-03-22T04:18:45;98613.19;;;6.03;100.00
45621;BME280;31345;51.522;10.702;2023-03-22T04:21:14;98618.19;;;5.90;100.00
45621;BME280;31345;51.522;10.702;2023-03-22T04:24:05;98615.09;;;5.67;100.00
45621;BME280;31345;51.522;10.702;2023-03-22T04:26:41;98611.09;;;5.78;100.00
45621;BME280;31345;51.522;10.702;2023-03-22T04:29:34;98607.38;;;5.49;100.00
45621;BME280;31345;51.522;10.702;2023-03-22T04:32:27;98605.81;;;5.63;100.00
45621;BME280;31345;51.522;10.702;2023-03-22T04:35:01;98601.69;;;5.43;100.00
45621;BME280;31345;51.522;10.702;2023-03-22T04:37:29;98597.50;;;5.56;100.00
45621;BME280;31345;51.522;10.702;2023-03-22T04:40:14;98596.00;;;5.52;100.00
45621;BME280;31345;51.522;10.702;2023-03-22T04:43:09;98591.06;;;5.47;100.00
45621;BME280;31345;51.522;10.702;2023-03-22T04:45:58;98594.09;;;5.22;100.00
45621;BME280;31345;51.522;10.702;2023-03-22T04:48:32;98595.38;;;4.97;100.00
45621;BME280;31345;51.522;10.702;2023-03-22T04:51:09;98588.94;;;5.22;100.00
45621;BME280;31345;51.522;10.702;2023-03-22T04:53:49;98599.13;;;5.25;100.00
45621;BME280;31345;51.522;10.702;2023-03-22T04:56:17;98581.00;;;5.25;100.00
45621;BME280;31345;51.522;10.702;2023-03-22T04:58:48;98585.28;;;5.08;100.00
45621;BME280;31345;51.522;10.702;2023-03-22T05:01:22;98588.28;;;5.01;100.00
45621;BME280;31345;51.522;10.702;2023-03-22T05:03:58;98584.22;;;5.13;100.00
45621;BME280;31345;51.522;10.702;2023-03-22T05:06:26;98580.88;;;5.10;100.00
45621;BME280;31345;51.522;10.702;2023-03-22T05:09:10;98575.94;;;4.88;100.00
45621;BME280;31345;51.522;10.702;2023-03-22T05:11:42;98576.09;;;4.85;100.00
45621;BME280;31345;51.522;10.702;2023-03-22T05:14:26;98572.31;;;4.75;100.00
45621;BME280;31345;51.522;10.702;2023-03-22T05:17:00;98569.91;;;4.88;100.00
45621;BME280;31345;51.522;10.702;2023-03-22T05:19:37;98567.63;;;4.99;100.00
45621;BME280;31345;51.522;10.702;2023-03-22T05:22:10;98576.09;;;4.85;100.00
45621;BME280;31345;51.522;10.702;2023-03-22T05:24:53;98577.69;;;4.88;100.00
45621;BME280;31345;51.522;10.702;2023-03-22T05:27:23;98576.16;;;4.83;100.00
45621;BME280;31345;51.522;10.702;2023-03-22T05:30:06;98576.88;;;4.87;100.00
45621;BME280;31345;51.522;10.702;2023-03-22T05:32:56;98577.84;;;4.67;100.00
45621;BME280;31345;51.522;10.702;2023-03-22T05:35:25;98582.19;;;4.66;100.00
45621;BME280;31345;51.522;10.702;2023-03-22T05:37:59;98576.34;;;4.63;100.00
45621;BME280;31345;51.522;10.702;2023-03-22T05:40:29;98581.22;;;4.33;100.00
45621;BME280;31345;51.522;10.702;2023-03-22T05:42:57;98593.78;;;4.77;100.00
45621;BME280;31345;51.522;10.702;2023-03-22T05:45:31;98581.13;;;4.53;100.00
45621;BME280;31345;51.522;10.702;2023-03-22T05:48:30;98584.31;;;4.40;100.00
45621;BME280;31345;51.522;10.702;2023-03-22T05:51:04;98590.75;;;4.51;100.00
45621;BME280;31345;51.522;10.702;2023-03-22T05:53:33;98584.31;;;4.58;100.00
45621;BME280;31345;51.522;10.702;2023-03-22T05:56:22;98588.28;;;4.65;100.00
45621;BME280;31345;51.522;10.702;2023-03-22T05:59:01;98600.25;;;4.68;100.00
45621;BME280;31345;51.522;10.702;2023-03-22T06:01:35;98596.53;;;4.91;100.00
45621;BME280;31345;51.522;10.702;2023-03-22T06:04:14;98590.72;;;4.86;100.00
45621;BME280;31345;51.522;10.702;2023-03-22T06:07:08;98594.56;;;4.79;100.00
45621;BME280;31345;51.522;10.702;2023-03-22T06:09:44;98586.59;;;4.82;100.00
45621;BME280;31345;51.522;10.702;2023-03-22T06:12:17;98591.78;;;4.82;100.00
45621;BME280;31345;51.522;10.702;2023-03-22T06:14:51;98584.94;;;4.81;100.00
45621;BME280;31345;51.522;10.702;2023-03-22T06:17:39;98589.19;;;5.00;100.00
45621;BME280;31345;51.522;10.702;2023-03-22T06:20:13;98590.56;;;5.07;100.00
45621;BME280;31345;51.522;10.702;2023-03-22T06:22:51;98591.88;;;5.32;100.00
45621;BME280;31345;51.522;10.702;2023-03-22T06:25:24;98594.66;;;5.11;100.00
45621;BME280;31345;51.522;10.702;2023-03-22T06:27:57;98591.66;;;5.19;100.00
45621;BME280;31345;51.522;10.702;2023-03-22T06:30:30;98590.78;;;5.36;100.00
45621;BME280;31345;51.522;10.702;2023-03-22T06:33:33;98595.59;;;5.60;100.00
45621;BME280;31345;51.522;10.702;2023-03-22T06:36:16;98589.66;;;5.74;100.00
45621;BME280;31345;51.522;10.702;2023-03-22T06:39:12;98591.09;;;5.80;100.00
45621;BME280;31345;51.522;10.702;2023-03-22T06:41:43;98597.44;;;5.90;100.00
45621;BME280;31345;51.522;10.702;2023-03-22T06:44:11;98601.72;;;6.07;100.00
45621;BME280;31345;51.522;10.702;2023-03-22T06:47:09;98606.91;;;6.23;100.00
45621;BME280;31345;51.522;10.702;2023-03-22T06:49:53;98603.88;;;6.31;100.00
45621;BME280;31345;51.522;10.702;2023-03-22T06:52:26;98598.34;;;6.37;100.00
45621;BME280;31345;51.522;10.702;2023-03-22T06:54:56;98601.25;;;6.47;100.00
45621;BME280;31345;51.522;10.702;2023-03-22T06:57:24;98603.06;;;6.61;100.00
45621;BME280;31345;51.522;10.702;2023-03-22T06:59:52;98594.72;;;6.71;100.00
45621;BME280;31345;51.522;10.702;2023-03-22T07:02:24;98594.78;;;6.85;100.00
45621;BME280;31345;51.522;10.702;2023-03-22T07:05:16;98595.88;;;6.96;100.00
45621;BME280;31345;51.522;10.702;2023-03-22T07:07:45;98603.53;;;7.13;100.00
45621;BME280;31345;51.522;10.702;2023-03-22T07:10:12;98594.88;;;7.42;100.00
45621;BME280;31345;51.522;10.702;2023-03-22T07:12:40;98601.69;;;7.59;100.00
45621;BME280;31345;51.522;10.702;2023-03-22T07:15:12;98596.22;;;7.64;100.00
45621;BME280;31345;51.522;10.702;2023-03-22T07:18:11;98595.63;;;7.88;100.00
45621;BME280;31345;51.522;10.702;2023-03-22T07:20:44;98597.44;;;8.00;100.00
45621;BME280;31345;51.522;10.702;2023-03-22T07:23:14;98593.88;;;8.16;100.00
45621;BME280;31345;51.522;10.702;2023-03-22T07:25:54;98597.81;;;8.49;100.00
45621;BME280;31345;51.522;10.702;2023-03-22T07:28:36;98585.25;;;8.69;100.00
45621;BME280;31345;51.522;10.702;2023-03-22T07:31:12;98586.53;;;8.76;100.00
45621;BME280;31345;51.522;10.702;2023-03-22T07:34:06;98585.50;;;8.92;100.00
45621;BME280;31345;51.522;10.702;2023-03-22T07:36:48;98581.22;;;9.04;100.00
45621;BME280;31345;51.522;10.702;2023-03-22T07:39:17;98585.81;;;9.00;100.00
45621;BME280;31345;51.522;10.702;2023-03-22T07:41:52;98582.19;;;9.16;100.00
45621;BME280;31345;51.522;10.702;2023-03-22T07:44:28;98580.75;;;9.62;100.00
45621;BME280;31345;51.522;10.702;2023-03-22T07:47:21;98576.22;;;9.77;100.00
45621;BME280;31345;51.522;10.702;2023-03-22T07:50:06;98563.78;;;9.81;100.00
45621;BME280;31345;51.522;10.702;2023-03-22T07:52:41;98563.19;;;9.77;100.00
45621;BME280;31345;51.522;10.702;2023-03-22T07:55:22;98551.63;;;9.93;100.00
45621;BME280;31345;51.522;10.702;2023-03-22T07:57:51;98551.81;;;10.27;100.00
45621;BME280;31345;51.522;10.702;2023-03-22T08:00:30;98547.25;;;10.42;100.00
45621;BME280;31345;51.522;10.702;2023-03-22T08:03:26;98542.66;;;10.57;100.00
45621;BME280;31345;51.522;10.702;2023-03-22T08:06:07;98537.66;;;10.54;100.00
45621;BME280;31345;51.522;10.702;2023-03-22T08:08:44;98525.09;;;10.59;100.00
45621;BME280;31345;51.522;10.702;2023-03-22T08:11:14;98523.50;;;10.57;100.00
45621;BME280;31345;51.522;10.702;2023-03-22T08:13:46;98526.53;;;10.63;100.00
45621;BME280;31345;51.522;10.702;2023-03-22T08:16:19;98519.28;;;10.67;100.00
45621;BME280;31345;51.522;10.702;2023-03-22T08:18:51;98524.63;;;10.65;100.00
45621;BME280;31345;51.522;10.702;2023-03-22T08:21:25;98523.78;;;10.76;100.00
45621;BME280;31345;51.522;10.702;2023-03-22T08:24:00;98527.47;;;10.74;100.00
45621;BME280;31345;51.522;10.702;2023-03-22T08:26:34;98517.75;;;11.22;100.00
45621;BME280;31345;51.522;10.702;2023-03-22T08:29:16;98517.75;;;11.33;100.00
45621;BME280;31345;51.522;10.702;2023-03-22T08:31:52;98515.72;;;11.48;100.00
45621;BME280;31345;51.522;10.702;2023-03-22T08:34:26;98506.53;;;11.65;100.00
45621;BME280;31345;51.522;10.702;2023-03-22T08:36:59;98505.44;;;11.68;100.00
45621;BME280;31345;51.522;10.702;2023-03-22T08:39:26;98508.63;;;11.83;100.00
45621;BME280;31345;51.522;10.702;2023-03-22T08:42:25;98499.91;;;11.94;100.00
45621;BME280;31345;51.522;10.702;2023-03-22T08:44:57;98505.38;;;11.91;100.00
45621;BME280;31345;51.522;10.702;2023-03-22T08:47:32;98498.94;;;12.06;100.00
45621;BME280;31345;51.522;10.702;2023-03-22T08:50:08;98492.25;;;12.14;100.00
45621;BME280;31345;51.522;10.702;2023-03-22T08:52:57;98496.34;;;12.28;100.00
45621;BME280;31345;51.522;10.702;2023-03-22T08:55:36;98488.47;;;12.28;100.00
45621;BME280;31345;51.522;10.702;2023-03-22T08:58:17;98485.66;;;12.41;100.00
45621;BME280;31345;51.522;10.702;2023-03-22T09:00:54;98491.47;;;12.23;100.00
45621;BME280;31345;51.522;10.702;2023-03-22T09:03:35;98482.31;;;12.17;100.00
45621;BME280;31345;51.522;10.702;2023-03-22T09:06:04;98484.91;;;12.50;100.00
45621;BME280;31345;51.522;10.702;2023-03-22T09:08:36;98479.72;;;12.60;100.00
45621;BME280;31345;51.522;10.702;2023-03-22T09:11:13;98472.66;;;12.39;100.00
45621;BME280;31345;51.522;10.702;2023-03-22T09:13:49;98480.88;;;12.25;100.00
45621;BME280;31345;51.522;10.702;2023-03-22T09:16:23;98471.72;;;12.40;100.00
45621;BME280;31345;51.522;10.702;2023-03-22T09:18:50;98463.09;;;12.50;100.00
45621;BME280;31345;51.522;10.702;2023-03-22T09:21:26;98461.69;;;12.24;100.00
45621;BME280;31345;51.522;10.702;2023-03-22T09:24:04;98456.81;;;12.41;100.00
45621;BME280;31345;51.522;10.702;2023-03-22T09:26:45;98452.22;;;12.33;100.00
45621;BME280;31345;51.522;10.702;2023-03-22T09:29:23;98456.50;;;12.55;100.00
45621;BME280;31345;51.522;10.702;2023-03-22T09:31:56;98448.56;;;12.67;100.00
45621;BME280;31345;51.522;10.702;2023-03-22T09:34:34;98455.81;;;12.84;100.00
45621;BME280;31345;51.522;10.702;2023-03-22T09:37:08;98454.03;;;12.85;98.77
45621;BME280;31345;51.522;10.702;2023-03-22T09:39:49;98454.69;;;12.87;98.74
45621;BME280;31345;51.522;10.702;2023-03-22T09:42:28;98452.53;;;12.61;99.03
45621;BME280;31345;51.522;10.702;2023-03-22T09:45:04;98457.00;;;12.49;99.62
45621;BME280;31345;51.522;10.702;2023-03-22T09:47:34;98445.78;;;12.37;98.72
45621;BME280;31345;51.522;10.702;2023-03-22T09:50:07;98453.63;;;12.16;100.00
45621;BME280;31345;51.522;10.702;2023-03-22T09:52:43;98454.47;;;12.16;100.00
45621;BME280;31345;51.522;10.702;2023-03-22T09:55:17;98458.38;;;12.22;100.00
45621;BME280;31345;51.522;10.702;2023-03-22T09:57:58;98459.59;;;12.18;100.00
45621;BME280;31345;51.522;10.702;2023-03-22T10:00:40;98469.28;;;12.06;100.00
45621;BME280;31345;51.522;10.702;2023-03-22T10:03:20;98466.16;;;12.12;99.95
45621;BME280;31345;51.522;10.702;2023-03-22T10:05:58;98482.06;;;11.99;100.00
45621;BME280;31345;51.522;10.702;2023-03-22T10:08:35;98461.59;;;12.14;98.59
45621;BME280;31345;51.522;10.702;2023-03-22T10:11:12;98446.13;;;12.54;97.76
45621;BME280;31345;51.522;10.702;2023-03-22T10:13:56;98457.47;;;12.33;95.89
45621;BME280;31345;51.522;10.702;2023-03-22T10:16:30;98456.88;;;12.51;93.84
45621;BME280;31345;51.522;10.702;2023-03-22T10:19:07;98449.28;;;12.26;94.05
45621;BME280;31345;51.522;10.702;2023-03-22T10:21:47;98443.84;;;12.39;94.45
45621;BME280;31345;51.522;10.702;2023-03-22T10:24:16;98438.41;;;12.31;93.44
45621;BME280;31345;51.522;10.702;2023-03-22T10:26:47;98422.88;;;12.39;93.94
45621;BME280;31345;51.522;10.702;2023-03-22T10:29:22;98426.69;;;12.88;91.54
45621;BME280;31345;51.522;10.702;2023-03-22T10:31:53;98413.41;;;13.30;92.55
45621;BME280;31345;51.522;10.702;2023-03-22T10:34:28;98414.22;;;13.21;92.24
45621;BME280;31345;51.522;10.702;2023-03-22T10:37:03;98407.56;;;13.17;91.75
45621;BME280;31345;51.522;10.702;2023-03-22T10:39:39;98402.63;;;13.53;90.37
45621;BME280;31345;51.522;10.702;2023-03-22T10:42:12;98403.72;;;13.31;88.47
45621;BME280;31345;51.522;10.702;2023-03-22T10:44:47;98393.94;;;13.33;87.20
45621;BME280;31345;51.522;10.702;2023-03-22T10:47:26;98407.13;;;13.02;90.27
45621;BME280;31345;51.522;10.702;2023-03-22T10:50:03;98401.75;;;13.03;89.43
45621;BME280;31345;51.522;10.702;2023-03-22T10:52:41;98395.47;;;13.55;88.92
45621;BME280;31345;51.522;10.702;2023-03-22T10:55:16;98391.19;;;13.44;89.08
45621;BME280;31345;51.522;10.702;2023-03-22T10:57:50;98388.81;;;13.21;88.41
45621;BME280;31345;51.522;10.702;2023-03-22T11:00:27;98393.03;;;13.03;89.69
45621;BME280;31345;51.522;10.702;2023-03-22T11:03:01;98390.91;;;13.28;88.97
45621;BME280;31345;51.522;10.702;2023-03-22T11:05:29;98392.41;;;13.30;89.18
45621;BME280;31345;51.522;10.702;2023-03-22T11:08:02;98384.41;;;13.42;90.29
45621;BME280;31345;51.522;10.702;2023-03-22T11:10:34;98386.34;;;13.49;89.51
45621;BME280;31345;51.522;10.702;2023-03-22T11:13:15;98377.97;;;13.56;88.63
45621;BME280;31345;51.522;10.702;2023-03-22T11:15:50;98392.56;;;13.39;89.19
45621;BME280;31345;51.522;10.702;2023-03-22T11:18:28;98376.72;;;13.60;85.20
45621;BME280;31345;51.522;10.702;2023-03-22T11:20:58;98395.63;;;13.63;85.84
45621;BME280;31345;51.522;10.702;2023-03-22T11:23:32;98379.59;;;13.77;85.07
45621;BME280;31345;51.522;10.702;2023-03-22T11:26:09;98379.66;;;14.24;84.14
45621;BME280;31345;51.522;10.702;2023-03-22T11:28:44;98382.38;;;14.43;79.80
45621;BME280;31345;51.522;10.702;2023-03-22T11:31:14;98380.38;;;14.07;81.42
45621;BME280;31345;51.522;10.702;2023-03-22T11:33:56;98388.34;;;14.35;84.54
45621;BME280;31345;51.522;10.702;2023-03-22T11:36:28;98371.59;;;14.46;83.93
45621;BME280;31345;51.522;10.702;2023-03-22T11:39:06;98380.91;;;14.68;82.60
45621;BME280;31345;51.522;10.702;2023-03-22T11:41:39;98377.25;;;14.41;80.45
45621;BME280;31345;51.522;10.702;2023-03-22T11:44:14;98369.50;;;13.82;82.70
45621;BME280;31345;51.522;10.702;2023-03-22T11:46:48;98364.63;;;14.07;82.57
45621;BME280;31345;51.522;10.702;2023-03-22T11:49:25;98366.00;;;14.01;84.10
45621;BME280;31345;51.522;10.702;2023-03-22T11:51:54;98370.38;;;14.30;82.96
45621;BME280;31345;51.522;10.702;2023-03-22T11:54:26;98365.25;;;14.29;79.81
45621;BME280;31345;51.522;10.702;2023-03-22T11:56:57;98356.69;;;14.26;79.84
45621;BME280;31345;51.522;10.702;2023-03-22T11:59:37;98356.94;;;14.33;82.40
45621;BME280;31345;51.522;10.702;2023-03-22T12:02:16;98348.13;;;14.24;81.12
45621;BME280;31345;51.522;10.702;2023-03-22T12:04:47;98355.03;;;14.25;81.98
45621;BME280;31345;51.522;10.702;2023-03-22T12:07:22;98348.38;;;14.31;81.63
45621;BME280;31345;51.522;10.702;2023-03-22T12:09:57;98352.06;;;14.48;82.67
45621;BME280;31345;51.522;10.702;2023-03-22T12:12:36;98355.91;;;14.54;81.43
45621;BME280;31345;51.522;10.702;2023-03-22T12:15:14;98343.66;;;14.63;81.53
45621;BME280;31345;51.522;10.702;2023-03-22T12:17:53;98342.75;;;14.82;80.80
45621;BME280;31345;51.522;10.702;2023-03-22T12:20:39;98336.69;;;14.44;80.34
45621;BME280;31345;51.522;10.702;2023-03-22T12:23:12;98340.22;;;14.24;80.72
45621;BME280;31345;51.522;10.702;2023-03-22T12:25:45;98333.59;;;14.20;80.80
45621;BME280;31345;51.522;10.702;2023-03-22T12:28:21;98337.78;;;14.13;81.72
45621;BME280;31345;51.522;10.702;2023-03-22T12:30:55;98327.16;;;14.05;79.47
45621;BME280;31345;51.522;10.702;2023-03-22T12:33:32;98333.53;;;14.02;79.70
45621;BME280;31345;51.522;10.702;2023-03-22T12:36:05;98337.66;;;14.05;82.04
45621;BME280;31345;51.522;10.702;2023-03-22T12:38:38;98334.84;;;14.26;80.94
45621;BME280;31345;51.522;10.702;2023-03-22T12:41:15;98331.50;;;14.24;80.22
45621;BME280;31345;51.522;10.702;2023-03-22T12:43:54;98323.22;;;14.19;79.42
45621;BME280;31345;51.522;10.702;2023-03-22T12:46:29;98318.09;;;14.27;78.09
45621;BME280;31345;51.522;10.702;2023-03-22T12:49:07;98314.78;;;14.15;79.28
45621;BME280;31345;51.522;10.702;2023-03-22T12:51:39;98311.94;;;14.36;78.23
45621;BME280;31345;51.522;10.702;2023-03-22T12:54:14;98306.97;;;14.33;78.70
45621;BME280;31345;51.522;10.702;2023-03-22T12:56:49;98306.25;;;14.41;76.08
45621;BME280;31345;51.522;10.702;2023-03-22T12:59:21;98313.63;;;14.27;77.47
45621;BME280;31345;51.522;10.702;2023-03-22T13:01:58;98308.44;;;14.18;77.09
45621;BME280;31345;51.522;10.702;2023-03-22T13:04:49;98305.84;;;14.08;78.04
45621;BME280;31345;51.522;10.702;2023-03-22T13:07:50;98316.16;;;14.19;74.83
45621;BME280;31345;51.522;10.702;2023-03-22T13:13:52;98307.78;;;14.06;74.13
45621;BME280;31345;51.522;10.702;2023-03-22T13:19:24;98315.97;;;14.31;75.71
45621;BME280;31345;51.522;10.702;2023-03-22T13:22:19;98315.84;;;14.32;75.10
45621;BME280;31345;51.522;10.702;2023-03-22T13:25:13;98320.16;;;14.23;75.55
45621;BME280;31345;51.522;10.702;2023-03-22T13:27:54;98316.75;;;14.13;74.48
45621;BME280;31345;51.522;10.702;2023-03-22T13:30:25;98320.88;;;14.16;74.68
45621;BME280;31345;51.522;10.702;2023-03-22T13:32:56;98312.16;;;14.15;72.90
45621;BME280;31345;51.522;10.702;2023-03-22T13:35:39;98319.44;;;14.31;76.41
45621;BME280;31345;51.522;10.702;2023-03-22T13:38:16;98321.09;;;14.32;76.93
45621;BME280;31345;51.522;10.702;2023-03-22T13:40:58;98309.94;;;14.20;75.88
45621;BME280;31345;51.522;10.702;2023-03-22T13:43:30;98312.28;;;14.13;75.72
45621;BME280;31345;51.522;10.702;2023-03-22T13:46:10;98308.75;;;14.05;76.42